Time,TemperatureF,DewpointF,PressureIn,WindDirection,WindDirectionDegrees,WindSpeedMPH,WindSpeedGustMPH,Humidity,HourlyPrecipIn,Conditions,Clouds,dailyrainin,SoftwareType,DateUTC
2013-02-24 00:00:00,40.6,40.6,29.78,NNW,344,1.0,4.0,100,0.00,OVC,,0.18,WeatherDisplay:10.37,2013-02-24 05:00:00,
2013-02-24 00:15:00,40.5,40.5,29.78,North,353,2.0,5.0,100,0.00,OVC,,0.18,WeatherDisplay:10.37,2013-02-24 05:15:00,
2013-02-24 00:30:00,39.9,39.9,29.78,NNW,343,5.0,6.0,100,0.00,OVC,,0.18,WeatherDisplay:10.37,2013-02-24 05:30:00,
2013-02-24 00:45:00,39.2,39.2,29.78,NNW,334,5.0,5.0,100,0.01,OVC,,0.20,WeatherDisplay:10.37,2013-02-24 05:45:00,
2013-02-24 01:00:00,39.2,39.2,29.78,NNW,336,5.0,5.0,100,0.00,OVC,,0.20,WeatherDisplay:10.37,2013-02-24 06:00:00,
2013-02-24 01:15:00,38.8,38.8,29.78,NNW,340,5.0,7.0,100,0.00,OVC,,0.20,WeatherDisplay:10.37,2013-02-24 06:15:00,
2013-02-24 01:30:00,38.7,38.7,29.78,NNW,333,6.0,7.0,100,0.00,OVC,,0.20,WeatherDisplay:10.37,2013-02-24 06:30:00,
2013-02-24 01:45:00,38.5,38.5,29.78,NW,326,6.0,7.0,100,0.00,OVC,,0.20,WeatherDisplay:10.37,2013-02-24 06:45:00,
2013-02-24 02:00:00,38.3,38.3,29.78,NNW,333,5.0,7.0,100,0.00,OVC,,0.20,WeatherDisplay:10.37,2013-02-24 07:00:00,
2013-02-24 02:15:00,38.3,38.3,29.78,NNW,345,6.0,7.0,100,0.00,OVC,,0.20,WeatherDisplay:10.37,2013-02-24 07:15:00,
2013-02-24 02:30:00,38.3,38.3,29.78,NNW,344,6.0,7.0,100,0.00,OVC,,0.20,WeatherDisplay:10.37,2013-02-24 07:30:00,
2013-02-24 02:45:00,38.1,38.1,29.75,NNW,339,5.0,6.0,100,0.00,OVC,,0.20,WeatherDisplay:10.37,2013-02-24 07:45:00,
2013-02-24 03:00:00,37.8,37.8,29.75,NNW,339,6.0,10.0,100,0.00,OVC,,0.20,WeatherDisplay:10.37,2013-02-24 08:00:00,
2013-02-24 03:15:00,37.4,37.4,29.78,NNW,329,7.0,7.0,100,0.00,OVC,,0.20,WeatherDisplay:10.37,2013-02-24 08:15:00,
2013-02-24 03:30:00,37.0,37.0,29.75,NNW,343,7.0,9.0,100,0.00,OVC,,0.20,WeatherDisplay:10.37,2013-02-24 08:30:00,
2013-02-24 03:45:00,37.0,37.0,29.75,NNW,345,5.0,8.0,100,0.00,OVC,,0.20,WeatherDisplay:10.37,2013-02-24 08:45:00,
2013-02-24 04:00:00,37.0,37.0,29.78,NNW,342,7.0,9.0,100,0.00,OVC,,0.20,WeatherDisplay:10.37,2013-02-24 09:00:00,
2013-02-24 04:15:00,37.0,37.0,29.78,NNW,342,8.0,10.0,100,0.00,OVC,,0.20,WeatherDisplay:10.37,2013-02-24 09:15:00,
2013-02-24 04:30:00,37.0,37.0,29.78,North,350,6.0,7.0,100,0.00,OVC,,0.20,WeatherDisplay:10.37,2013-02-24 09:30:00,
2013-02-24 04:45:00,37.0,37.0,29.78,NNW,338,5.0,7.0,100,0.00,OVC,,0.20,WeatherDisplay:10.37,2013-02-24 09:45:00,
2013-02-24 05:00:00,37.0,37.0,29.78,NNW,342,5.0,7.0,100,0.00,OVC,,0.20,WeatherDisplay:10.37,2013-02-24 10:00:00,
2013-02-24 05:15:00,36.9,36.9,29.78,North,354,5.0,6.0,100,0.00,OVC,,0.20,WeatherDisplay:10.37,2013-02-24 10:15:00,
2013-02-24 05:30:00,36.7,36.7,29.78,NNW,330,3.0,5.0,100,0.00,OVC,,0.20,WeatherDisplay:10.37,2013-02-24 10:30:00,
2013-02-24 05:45:00,36.5,36.5,29.78,NNW,344,2.0,5.0,100,0.00,OVC,,0.20,WeatherDisplay:10.37,2013-02-24 10:45:00,
2013-02-24 06:00:00,36.7,36.7,29.78,NW,316,1.0,3.0,100,0.00,OVC,,0.20,WeatherDisplay:10.37,2013-02-24 11:00:00,
2013-02-24 06:15:00,36.5,36.5,29.78,NNW,327,2.0,4.0,100,0.00,OVC,,0.20,WeatherDisplay:10.37,2013-02-24 11:15:00,
2013-02-24 06:30:00,36.7,36.7,29.78,NNW,328,3.0,5.0,100,0.00,OVC,,0.20,WeatherDisplay:10.37,2013-02-24 11:30:00,
2013-02-24 06:45:00,36.3,36.3,29.78,NNW,336,3.0,5.0,100,0.00,OVC,,0.20,WeatherDisplay:10.37,2013-02-24 11:45:00,
2013-02-24 07:00:00,36.3,36.3,29.81,NW,316,5.0,6.0,100,0.00,OVC,,0.00,WeatherDisplay:10.37,2013-02-24 12:00:00,
2013-02-24 07:15:00,36.5,36.5,29.81,NNW,327,6.0,7.0,100,0.00,OVC,,0.00,WeatherDisplay:10.37,2013-02-24 12:15:00,
2013-02-24 07:30:00,36.7,36.7,29.81,NW,308,7.0,8.0,100,0.00,OVC,,0.00,WeatherDisplay:10.37,2013-02-24 12:30:00,
2013-02-24 07:45:00,36.9,36.9,29.81,NW,308,7.0,8.0,100,0.00,OVC,,0.00,WeatherDisplay:10.37,2013-02-24 12:45:00,
2013-02-24 08:00:00,37.2,37.2,29.81,WNW,289,6.0,7.0,100,0.00,OVC,,0.00,WeatherDisplay:10.37,2013-02-24 13:00:00,
2013-02-24 08:15:00,37.8,37.8,29.84,WNW,298,3.0,7.0,100,0.00,OVC,,0.00,WeatherDisplay:10.37,2013-02-24 13:15:00,
2013-02-24 08:30:00,38.7,38.7,29.84,WNW,294,6.0,7.0,100,0.00,OVC,,0.00,WeatherDisplay:10.37,2013-02-24 13:30:00,
2013-02-24 08:45:00,38.3,38.3,29.84,WNW,296,6.0,8.0,100,0.00,OVC,,0.00,WeatherDisplay:10.37,2013-02-24 13:45:00,
2013-02-24 09:00:00,38.1,38.1,29.84,WNW,285,7.0,8.0,100,0.00,OVC,,0.00,WeatherDisplay:10.37,2013-02-24 14:00:00,
2013-02-24 09:15:00,38.8,38.8,29.84,WNW,287,7.0,10.0,100,0.00,OVC,,0.00,WeatherDisplay:10.37,2013-02-24 14:15:00,
2013-02-24 09:30:00,40.1,40.1,29.84,West,281,7.0,9.0,100,0.00,OVC,,0.00,WeatherDisplay:10.37,2013-02-24 14:30:00,
2013-02-24 09:45:00,41.2,41.2,29.84,WNW,292,7.0,8.0,100,0.00,OVC,,0.00,WeatherDisplay:10.37,2013-02-24 14:45:00,
2013-02-24 10:00:00,41.2,41.2,29.81,NW,310,8.0,9.0,100,0.00,OVC,,0.00,WeatherDisplay:10.37,2013-02-24 15:00:00,
2013-02-24 10:15:00,42.3,42.3,29.81,NW,306,8.0,12.0,100,0.00,OVC,,0.00,WeatherDisplay:10.37,2013-02-24 15:15:00,
2013-02-24 10:30:00,42.8,40.4,29.84,NW,311,8.0,10.0,91,0.00,OVC,,0.00,WeatherDisplay:10.37,2013-02-24 15:30:00,
2013-02-24 10:45:00,43.5,39.3,29.84,WNW,291,9.0,12.0,85,0.00,BKN,,0.00,WeatherDisplay:10.37,2013-02-24 15:45:00,
2013-02-24 11:00:00,44.1,38.6,29.84,WNW,282,12.0,14.0,81,0.00,FEW,,0.00,WeatherDisplay:10.37,2013-02-24 16:00:00,
2013-02-24 11:15:00,44.1,37.3,29.84,WNW,295,12.0,13.0,77,0.00,CLR,,0.00,WeatherDisplay:10.37,2013-02-24 16:15:00,
2013-02-24 11:30:00,44.4,36.6,29.84,WNW,287,12.0,14.0,74,0.00,CLR,,0.00,WeatherDisplay:10.37,2013-02-24 16:30:00,
2013-02-24 11:45:00,44.4,35.6,29.84,WNW,303,13.0,17.0,71,0.00,CLR,,0.00,WeatherDisplay:10.37,2013-02-24 16:45:00,
2013-02-24 12:00:00,45.7,35.0,29.84,WNW,288,12.0,14.0,66,0.00,CLR,,0.00,WeatherDisplay:10.37,2013-02-24 17:00:00,
2013-02-24 12:15:00,46.2,34.7,29.84,WNW,297,12.0,16.0,64,0.00,CLR,,0.00,WeatherDisplay:10.37,2013-02-24 17:15:00,
2013-02-24 12:30:00,46.8,34.8,29.84,WNW,301,12.0,14.0,63,0.00,CLR,,0.00,WeatherDisplay:10.37,2013-02-24 17:30:00,
2013-02-24 12:45:00,46.4,33.7,29.81,WNW,300,12.0,14.0,61,0.00,CLR,,0.00,WeatherDisplay:10.37,2013-02-24 17:45:00,
2013-02-24 13:00:00,46.0,32.5,29.81,NW,316,12.0,17.0,59,0.00,CLR,,0.00,WeatherDisplay:10.37,2013-02-24 18:00:00,
2013-02-24 13:15:00,46.0,32.1,29.81,NW,309,14.0,18.0,58,0.00,CLR,,0.00,WeatherDisplay:10.37,2013-02-24 18:15:00,
2013-02-24 13:30:00,46.0,31.6,29.81,NW,316,14.0,15.0,57,0.00,CLR,,0.00,WeatherDisplay:10.37,2013-02-24 18:30:00,
2013-02-24 13:45:00,46.2,30.9,29.81,NW,314,13.0,14.0,55,0.00,CLR,,0.00,WeatherDisplay:10.37,2013-02-24 18:45:00,
2013-02-24 14:00:00,46.4,30.6,29.81,NW,315,12.0,16.0,54,0.00,CLR,,0.00,WeatherDisplay:10.37,2013-02-24 19:00:00,
2013-02-24 14:15:00,46.4,30.6,29.81,NW,311,15.0,17.0,54,0.00,CLR,,0.00,WeatherDisplay:10.37,2013-02-24 19:15:00,
2013-02-24 14:30:00,46.4,30.6,29.81,NW,317,14.0,17.0,54,0.00,CLR,,0.00,WeatherDisplay:10.37,2013-02-24 19:30:00,
2013-02-24 14:45:00,46.0,30.3,29.81,NW,316,13.0,15.0,54,0.00,CLR,,0.00,WeatherDisplay:10.37,2013-02-24 19:45:00,
2013-02-24 15:00:00,46.0,29.4,29.81,NW,326,13.0,16.0,52,0.00,CLR,,0.00,WeatherDisplay:10.37,2013-02-24 20:00:00,
2013-02-24 15:15:00,46.2,29.1,29.81,NW,322,13.0,15.0,51,0.00,CLR,,0.00,WeatherDisplay:10.37,2013-02-24 20:15:00,
2013-02-24 15:30:00,45.9,28.7,29.81,NW,309,14.0,17.0,51,0.00,CLR,,0.00,WeatherDisplay:10.37,2013-02-24 20:30:00,
2013-02-24 15:45:00,45.5,28.9,29.84,NW,313,13.0,14.0,52,0.00,CLR,,0.00,WeatherDisplay:10.37,2013-02-24 20:45:00,
2013-02-24 16:00:00,46.4,29.2,29.84,NW,319,13.0,16.0,51,0.00,CLR,,0.00,WeatherDisplay:10.37,2013-02-24 21:00:00,
2013-02-24 16:15:00,45.1,28.5,29.84,NW,318,14.0,15.0,52,0.00,CLR,,0.00,WeatherDisplay:10.37,2013-02-24 21:15:00,
2013-02-24 16:30:00,44.4,28.8,29.84,NNW,330,12.0,13.0,54,0.00,BKN,,0.00,WeatherDisplay:10.37,2013-02-24 21:30:00,
2013-02-24 16:45:00,43.7,27.7,29.87,NW,324,12.0,14.0,53,0.00,SCT,,0.00,WeatherDisplay:10.37,2013-02-24 21:45:00,
2013-02-24 17:00:00,43.0,27.5,29.87,NW,325,10.0,12.0,54,0.00,CLR,,0.00,WeatherDisplay:10.37,2013-02-24 22:00:00,
2013-02-24 17:15:00,42.3,27.2,29.87,NW,322,12.0,14.0,55,0.00,FEW,,0.00,WeatherDisplay:10.37,2013-02-24 22:15:00,
2013-02-24 17:30:00,41.7,26.3,29.87,NNW,327,12.0,15.0,54,0.00,FEW,,0.00,WeatherDisplay:10.37,2013-02-24 22:30:00,
2013-02-24 17:45:00,41.2,25.3,29.90,NNW,330,13.0,17.0,53,0.00,CLR,,0.00,WeatherDisplay:10.37,2013-02-24 22:45:00,
2013-02-24 18:00:00,40.5,24.7,29.90,NNW,330,15.0,17.0,53,0.00,CLR,,0.00,WeatherDisplay:10.37,2013-02-24 23:00:00,
2013-02-24 18:15:00,40.3,24.9,29.90,NW,324,14.0,20.0,54,0.00,CLR,,0.00,WeatherDisplay:10.37,2013-02-24 23:15:00,
2013-02-24 18:30:00,39.7,24.4,29.93,NW,325,14.0,14.0,54,0.00,CLR,,0.00,WeatherDisplay:10.37,2013-02-24 23:30:00,
2013-02-24 18:45:00,39.2,24.4,29.93,NNW,333,14.0,20.0,55,0.00,CLR,,0.00,WeatherDisplay:10.37,2013-02-24 23:45:00,
2013-02-24 19:00:00,38.7,22.5,29.93,NW,324,16.0,21.0,52,0.00,CLR,,0.00,WeatherDisplay:10.37,2013-02-25 00:00:00,
2013-02-24 19:15:00,38.1,21.6,29.95,NNW,333,15.0,18.0,51,0.00,CLR,,0.00,WeatherDisplay:10.37,2013-02-25 00:15:00,
2013-02-24 19:30:00,37.8,22.6,29.95,NW,321,16.0,17.0,54,0.00,CLR,,0.00,WeatherDisplay:10.37,2013-02-25 00:30:00,
2013-02-24 19:45:00,37.4,22.7,29.95,NNW,332,14.0,16.0,55,0.00,CLR,,0.00,WeatherDisplay:10.37,2013-02-25 00:45:00,
2013-02-24 20:00:00,37.2,20.7,29.99,NNW,331,13.0,17.0,51,0.00,CLR,,0.00,WeatherDisplay:10.37,2013-02-25 01:00:00,
2013-02-24 20:15:00,36.9,20.9,29.99,NNW,329,15.0,17.0,52,0.00,CLR,,0.00,WeatherDisplay:10.37,2013-02-25 01:15:00,
2013-02-24 20:30:00,36.5,20.5,29.99,NNW,330,16.0,17.0,52,0.00,CLR,,0.00,WeatherDisplay:10.37,2013-02-25 01:30:00,
2013-02-24 20:45:00,36.1,19.7,29.99,NNW,328,14.0,15.0,51,0.00,CLR,,0.00,WeatherDisplay:10.37,2013-02-25 01:45:00,
2013-02-24 21:00:00,36.3,19.9,30.01,NNW,328,13.0,15.0,51,0.00,CLR,,0.00,WeatherDisplay:10.37,2013-02-25 02:00:00,
2013-02-24 21:15:00,36.0,20.5,30.01,NNW,327,14.0,18.0,53,0.00,CLR,,0.00,WeatherDisplay:10.37,2013-02-25 02:15:00,
2013-02-24 21:30:00,36.0,20.5,30.01,NW,325,13.0,16.0,53,0.00,CLR,,0.00,WeatherDisplay:10.37,2013-02-25 02:30:00,
2013-02-24 21:45:00,36.0,21.8,30.01,NW,326,12.0,15.0,56,0.00,CLR,,0.00,WeatherDisplay:10.37,2013-02-25 02:45:00,
2013-02-24 22:00:00,35.6,20.6,30.01,NW,319,14.0,18.0,54,0.00,CLR,,0.00,WeatherDisplay:10.37,2013-02-25 03:00:00,
2013-02-24 22:15:00,35.6,20.6,30.01,NW,320,15.0,18.0,54,0.00,CLR,,0.00,WeatherDisplay:10.37,2013-02-25 03:15:00,
2013-02-24 22:30:00,35.2,20.2,30.01,NW,318,14.0,16.0,54,0.00,CLR,,0.00,WeatherDisplay:10.37,2013-02-25 03:30:00,
2013-02-24 22:45:00,35.2,20.2,30.01,NW,318,14.0,18.0,54,0.00,CLR,,0.00,WeatherDisplay:10.37,2013-02-25 03:45:00,
2013-02-24 23:00:00,34.9,20.3,30.04,NW,318,15.0,18.0,55,0.00,CLR,,0.00,WeatherDisplay:10.37,2013-02-25 04:00:00,
2013-02-24 23:15:00,34.7,19.7,30.04,NNW,329,14.0,18.0,54,0.00,CLR,,0.00,WeatherDisplay:10.37,2013-02-25 04:15:00,
2013-02-24 23:30:00,34.9,19.9,30.04,NW,319,14.0,17.0,54,0.00,CLR,,0.00,WeatherDisplay:10.37,2013-02-25 04:30:00,
2013-02-24 23:45:00,34.7,20.2,30.04,NW,321,15.0,17.0,55,0.00,CLR,,0.00,WeatherDisplay:10.37,2013-02-25 04:45:00,